<?xml version="1.0" encoding="UTF-8" standalone="no" ?>
<gpx xmlns="http://www.topografix.com/GPX/1/1" xmlns:xsi="http://www.w3.org/2001/XMLSchema-instance" xsi:schemaLocation="http://www.topografix.com/GPX/1/1 http://www.topografix.com/GPX/1/1/gpx.xsd" version="1.1" creator="VisuGPX - https://www.visugpx.com">
  <metadata>
    <name>PILAT Des Trois Croix à Chaussitre</name>
    <desc><![CDATA[Bonne rando à la journée, beaux points de vue ]]></desc>
  </metadata>
  <wpt lat="45.32643" lon="4.48086">
    <ele>1133.3</ele>
    <name><![CDATA[Parc des Trois Croix]]></name>
  </wpt>
  <wpt lat="45.32098" lon="4.47609">
    <ele>1174.3</ele>
    <name><![CDATA[Carrefour de la boucle]]></name>
  </wpt>
  <wpt lat="45.31664" lon="4.46653">
    <ele>1145.1</ele>
    <name><![CDATA[Traversée de la D28]]></name>
  </wpt>
  <wpt lat="45.3143" lon="4.45673">
    <ele>1150.4</ele>
    <name><![CDATA[Entrée en forêt]]></name>
  </wpt>
  <wpt lat="45.31915" lon="4.44787">
    <ele>1124.6</ele>
    <name><![CDATA[Vers Pierre St Martin]]></name>
  </wpt>
  <wpt lat="45.30791" lon="4.43984">
    <ele>1218.1</ele>
    <name><![CDATA[Croix de Chaussitre]]></name>
  </wpt>
  <wpt lat="45.30456" lon="4.44423">
    <ele>1227.3</ele>
    <name><![CDATA[Ferme de Chaussitre]]></name>
  </wpt>
  <wpt lat="45.29661" lon="4.44668">
    <ele>1126.3</ele>
    <name><![CDATA[ La Roche de Gonaud]]></name>
  </wpt>
  <wpt lat="45.29782" lon="4.44898">
    <ele>1116.3</ele>
    <name><![CDATA[Croisement du Creux]]></name>
  </wpt>
  <wpt lat="45.29958" lon="4.45654">
    <ele>1075.8</ele>
    <name><![CDATA[Suivre le chemin montant à gauche proche de la]]></name>
  </wpt>
  <wpt lat="45.30173" lon="4.45935">
    <ele>1111</ele>
    <name><![CDATA[D28 à droite]]></name>
  </wpt>
  <wpt lat="45.30447" lon="4.4786">
    <ele>1168.9</ele>
    <name><![CDATA[Croisement vers Champin]]></name>
  </wpt>
  <wpt lat="45.31557" lon="4.47955">
    <ele>1196.8</ele>
    <name><![CDATA[Croisement de la cote 1197]]></name>
  </wpt>
  <wpt lat="45.32641" lon="4.48084">
    <ele>1133.1</ele>
    <name><![CDATA[Parc des Trois Croix]]></name>
  </wpt>
  <trk>
    <name><![CDATA[Des Trois Croix à Chaussitre]]></name>
    <extensions>
      <line xmlns="http://www.topografix.com/GPX/gpx_style/0/2">
        <color>0000FF</color>
        <width>4</width>
      </line>
    </extensions>
    <trkseg>
      <trkpt lat="45.32643" lon="4.48086">
        <ele>1143</ele>
        <time>2018-08-21T13:50:00+02:00</time>
      </trkpt>
      <trkpt lat="45.32624" lon="4.48103">
        <ele>1143</ele>
        <time>2018-08-21T13:51:14+02:00</time>
      </trkpt>
      <trkpt lat="45.32616" lon="4.48108">
        <ele>1143</ele>
        <time>2018-08-21T13:51:25+02:00</time>
      </trkpt>
      <trkpt lat="45.326" lon="4.48125">
        <ele>1142</ele>
        <time>2018-08-21T13:51:45+02:00</time>
      </trkpt>
      <trkpt lat="45.32588" lon="4.48148">
        <ele>1141</ele>
        <time>2018-08-21T13:52:04+02:00</time>
      </trkpt>
      <trkpt lat="45.32567" lon="4.4816">
        <ele>1141</ele>
        <time>2018-08-21T13:52:24+02:00</time>
      </trkpt>
      <trkpt lat="45.32561" lon="4.48164">
        <ele>1141</ele>
        <time>2018-08-21T13:52:30+02:00</time>
      </trkpt>
      <trkpt lat="45.32539" lon="4.48163">
        <ele>1144</ele>
        <time>2018-08-21T13:52:54+02:00</time>
      </trkpt>
      <trkpt lat="45.32525" lon="4.48155">
        <ele>1146</ele>
        <time>2018-08-21T13:53:06+02:00</time>
      </trkpt>
      <trkpt lat="45.32505" lon="4.48151">
        <ele>1148</ele>
        <time>2018-08-21T13:53:23+02:00</time>
      </trkpt>
      <trkpt lat="45.32495" lon="4.48147">
        <ele>1150</ele>
        <time>2018-08-21T13:53:34+02:00</time>
      </trkpt>
      <trkpt lat="45.32482" lon="4.48144">
        <ele>1152</ele>
        <time>2018-08-21T13:53:48+02:00</time>
      </trkpt>
      <trkpt lat="45.32472" lon="4.48133">
        <ele>1154</ele>
        <time>2018-08-21T13:54:04+02:00</time>
      </trkpt>
      <trkpt lat="45.32465" lon="4.48117">
        <ele>1157</ele>
        <time>2018-08-21T13:54:20+02:00</time>
      </trkpt>
      <trkpt lat="45.32459" lon="4.48096">
        <ele>1160</ele>
        <time>2018-08-21T13:54:37+02:00</time>
      </trkpt>
      <trkpt lat="45.32455" lon="4.4808">
        <ele>1162</ele>
        <time>2018-08-21T13:54:50+02:00</time>
      </trkpt>
      <trkpt lat="45.32451" lon="4.48062">
        <ele>1164</ele>
        <time>2018-08-21T13:55:04+02:00</time>
      </trkpt>
      <trkpt lat="45.32441" lon="4.48043">
        <ele>1166</ele>
        <time>2018-08-21T13:55:20+02:00</time>
      </trkpt>
      <trkpt lat="45.32436" lon="4.48025">
        <ele>1168</ele>
        <time>2018-08-21T13:55:34+02:00</time>
      </trkpt>
      <trkpt lat="45.32428" lon="4.47998">
        <ele>1170</ele>
        <time>2018-08-21T13:55:52+02:00</time>
      </trkpt>
      <trkpt lat="45.3242" lon="4.47974">
        <ele>1171</ele>
        <time>2018-08-21T13:56:11+02:00</time>
      </trkpt>
      <trkpt lat="45.32414" lon="4.47952">
        <ele>1171</ele>
        <time>2018-08-21T13:56:29+02:00</time>
      </trkpt>
      <trkpt lat="45.32405" lon="4.4793">
        <ele>1172</ele>
        <time>2018-08-21T13:56:45+02:00</time>
      </trkpt>
      <trkpt lat="45.32394" lon="4.47911">
        <ele>1173</ele>
        <time>2018-08-21T13:57:00+02:00</time>
      </trkpt>
      <trkpt lat="45.32381" lon="4.47895">
        <ele>1174</ele>
        <time>2018-08-21T13:57:17+02:00</time>
      </trkpt>
      <trkpt lat="45.3237" lon="4.47882">
        <ele>1175</ele>
        <time>2018-08-21T13:57:32+02:00</time>
      </trkpt>
      <trkpt lat="45.32356" lon="4.47868">
        <ele>1176</ele>
        <time>2018-08-21T13:57:48+02:00</time>
      </trkpt>
      <trkpt lat="45.32337" lon="4.47848">
        <ele>1178</ele>
        <time>2018-08-21T13:58:05+02:00</time>
      </trkpt>
      <trkpt lat="45.32318" lon="4.47832">
        <ele>1180</ele>
        <time>2018-08-21T13:58:24+02:00</time>
      </trkpt>
      <trkpt lat="45.32302" lon="4.47818">
        <ele>1182</ele>
        <time>2018-08-21T13:58:41+02:00</time>
      </trkpt>
      <trkpt lat="45.32285" lon="4.47806">
        <ele>1184</ele>
        <time>2018-08-21T13:58:56+02:00</time>
      </trkpt>
      <trkpt lat="45.32271" lon="4.47797">
        <ele>1185</ele>
        <time>2018-08-21T13:59:13+02:00</time>
      </trkpt>
      <trkpt lat="45.32258" lon="4.47789">
        <ele>1187</ele>
        <time>2018-08-21T13:59:28+02:00</time>
      </trkpt>
      <trkpt lat="45.32239" lon="4.4778">
        <ele>1189</ele>
        <time>2018-08-21T13:59:46+02:00</time>
      </trkpt>
      <trkpt lat="45.32226" lon="4.47768">
        <ele>1190</ele>
        <time>2018-08-21T14:00:02+02:00</time>
      </trkpt>
      <trkpt lat="45.32212" lon="4.47759">
        <ele>1191</ele>
        <time>2018-08-21T14:00:17+02:00</time>
      </trkpt>
      <trkpt lat="45.32194" lon="4.47745">
        <ele>1192</ele>
        <time>2018-08-21T14:00:35+02:00</time>
      </trkpt>
      <trkpt lat="45.3218" lon="4.47731">
        <ele>1192</ele>
        <time>2018-08-21T14:00:53+02:00</time>
      </trkpt>
      <trkpt lat="45.32166" lon="4.47719">
        <ele>1193</ele>
        <time>2018-08-21T14:01:07+02:00</time>
      </trkpt>
      <trkpt lat="45.32151" lon="4.47705">
        <ele>1193</ele>
        <time>2018-08-21T14:01:24+02:00</time>
      </trkpt>
      <trkpt lat="45.32134" lon="4.47695">
        <ele>1193</ele>
        <time>2018-08-21T14:01:41+02:00</time>
      </trkpt>
      <trkpt lat="45.3212" lon="4.4768">
        <ele>1192</ele>
        <time>2018-08-21T14:01:55+02:00</time>
      </trkpt>
      <trkpt lat="45.32108" lon="4.47664">
        <ele>1192</ele>
        <time>2018-08-21T14:02:11+02:00</time>
      </trkpt>
      <trkpt lat="45.32102" lon="4.47636">
        <ele>1190</ele>
        <time>2018-08-21T14:02:30+02:00</time>
      </trkpt>
      <trkpt lat="45.32098" lon="4.47609">
        <ele>1189</ele>
        <time>2018-08-21T14:02:45+02:00</time>
      </trkpt>
      <trkpt lat="45.32095" lon="4.476">
        <ele>1188</ele>
        <time>2018-08-21T14:02:50+02:00</time>
      </trkpt>
      <trkpt lat="45.32083" lon="4.4757">
        <ele>1188</ele>
        <time>2018-08-21T14:03:05+02:00</time>
      </trkpt>
      <trkpt lat="45.32078" lon="4.4755">
        <ele>1187</ele>
        <time>2018-08-21T14:03:19+02:00</time>
      </trkpt>
      <trkpt lat="45.32069" lon="4.4753">
        <ele>1187</ele>
        <time>2018-08-21T14:03:33+02:00</time>
      </trkpt>
      <trkpt lat="45.32058" lon="4.47505">
        <ele>1187</ele>
        <time>2018-08-21T14:03:48+02:00</time>
      </trkpt>
      <trkpt lat="45.32041" lon="4.47483">
        <ele>1186</ele>
        <time>2018-08-21T14:04:05+02:00</time>
      </trkpt>
      <trkpt lat="45.32021" lon="4.47468">
        <ele>1186</ele>
        <time>2018-08-21T14:04:22+02:00</time>
      </trkpt>
      <trkpt lat="45.32008" lon="4.47453">
        <ele>1184</ele>
        <time>2018-08-21T14:04:37+02:00</time>
      </trkpt>
      <trkpt lat="45.32" lon="4.47431">
        <ele>1182</ele>
        <time>2018-08-21T14:04:53+02:00</time>
      </trkpt>
      <trkpt lat="45.31992" lon="4.47402">
        <ele>1181</ele>
        <time>2018-08-21T14:05:10+02:00</time>
      </trkpt>
      <trkpt lat="45.31987" lon="4.47375">
        <ele>1180</ele>
        <time>2018-08-21T14:05:25+02:00</time>
      </trkpt>
      <trkpt lat="45.31983" lon="4.47354">
        <ele>1180</ele>
        <time>2018-08-21T14:05:37+02:00</time>
      </trkpt>
      <trkpt lat="45.31978" lon="4.47329">
        <ele>1180</ele>
        <time>2018-08-21T14:05:51+02:00</time>
      </trkpt>
      <trkpt lat="45.31973" lon="4.47304">
        <ele>1180</ele>
        <time>2018-08-21T14:06:07+02:00</time>
      </trkpt>
      <trkpt lat="45.31968" lon="4.4728">
        <ele>1180</ele>
        <time>2018-08-21T14:06:21+02:00</time>
      </trkpt>
      <trkpt lat="45.31961" lon="4.47269">
        <ele>1180</ele>
        <time>2018-08-21T14:06:27+02:00</time>
      </trkpt>
      <trkpt lat="45.31949" lon="4.4725">
        <ele>1181</ele>
        <time>2018-08-21T14:06:40+02:00</time>
      </trkpt>
      <trkpt lat="45.31935" lon="4.47234">
        <ele>1182</ele>
        <time>2018-08-21T14:06:54+02:00</time>
      </trkpt>
      <trkpt lat="45.31924" lon="4.4722">
        <ele>1183</ele>
        <time>2018-08-21T14:07:08+02:00</time>
      </trkpt>
      <trkpt lat="45.31911" lon="4.47204">
        <ele>1185</ele>
        <time>2018-08-21T14:07:22+02:00</time>
      </trkpt>
      <trkpt lat="45.31898" lon="4.47189">
        <ele>1186</ele>
        <time>2018-08-21T14:07:37+02:00</time>
      </trkpt>
      <trkpt lat="45.31886" lon="4.4717">
        <ele>1187</ele>
        <time>2018-08-21T14:07:52+02:00</time>
      </trkpt>
      <trkpt lat="45.31874" lon="4.47152">
        <ele>1187</ele>
        <time>2018-08-21T14:08:07+02:00</time>
      </trkpt>
      <trkpt lat="45.31862" lon="4.47137">
        <ele>1187</ele>
        <time>2018-08-21T14:08:23+02:00</time>
      </trkpt>
      <trkpt lat="45.31841" lon="4.47115">
        <ele>1187</ele>
        <time>2018-08-21T14:08:38+02:00</time>
      </trkpt>
      <trkpt lat="45.31828" lon="4.47101">
        <ele>1186</ele>
        <time>2018-08-21T14:08:51+02:00</time>
      </trkpt>
      <trkpt lat="45.31814" lon="4.47083">
        <ele>1186</ele>
        <time>2018-08-21T14:09:08+02:00</time>
      </trkpt>
      <trkpt lat="45.31801" lon="4.47067">
        <ele>1185</ele>
        <time>2018-08-21T14:09:24+02:00</time>
      </trkpt>
      <trkpt lat="45.3179" lon="4.4705">
        <ele>1184</ele>
        <time>2018-08-21T14:09:37+02:00</time>
      </trkpt>
      <trkpt lat="45.31781" lon="4.47033">
        <ele>1183</ele>
        <time>2018-08-21T14:09:49+02:00</time>
      </trkpt>
      <trkpt lat="45.31772" lon="4.47014">
        <ele>1182</ele>
        <time>2018-08-21T14:10:03+02:00</time>
      </trkpt>
      <trkpt lat="45.31762" lon="4.46995">
        <ele>1181</ele>
        <time>2018-08-21T14:10:17+02:00</time>
      </trkpt>
      <trkpt lat="45.31757" lon="4.46974">
        <ele>1179</ele>
        <time>2018-08-21T14:10:30+02:00</time>
      </trkpt>
      <trkpt lat="45.31752" lon="4.46947">
        <ele>1177</ele>
        <time>2018-08-21T14:10:47+02:00</time>
      </trkpt>
      <trkpt lat="45.31749" lon="4.46922">
        <ele>1174</ele>
        <time>2018-08-21T14:11:04+02:00</time>
      </trkpt>
      <trkpt lat="45.3175" lon="4.46904">
        <ele>1173</ele>
        <time>2018-08-21T14:11:18+02:00</time>
      </trkpt>
      <trkpt lat="45.31742" lon="4.46874">
        <ele>1170</ele>
        <time>2018-08-21T14:11:35+02:00</time>
      </trkpt>
      <trkpt lat="45.3173" lon="4.46847">
        <ele>1168</ele>
        <time>2018-08-21T14:11:51+02:00</time>
      </trkpt>
      <trkpt lat="45.31719" lon="4.46832">
        <ele>1166</ele>
        <time>2018-08-21T14:12:05+02:00</time>
      </trkpt>
      <trkpt lat="45.31706" lon="4.46816">
        <ele>1165</ele>
        <time>2018-08-21T14:12:19+02:00</time>
      </trkpt>
      <trkpt lat="45.31697" lon="4.46796">
        <ele>1164</ele>
        <time>2018-08-21T14:12:33+02:00</time>
      </trkpt>
      <trkpt lat="45.31694" lon="4.4677">
        <ele>1162</ele>
        <time>2018-08-21T14:12:51+02:00</time>
      </trkpt>
      <trkpt lat="45.31694" lon="4.46744">
        <ele>1159</ele>
        <time>2018-08-21T14:13:05+02:00</time>
      </trkpt>
      <trkpt lat="45.31687" lon="4.46715">
        <ele>1155</ele>
        <time>2018-08-21T14:13:19+02:00</time>
      </trkpt>
      <trkpt lat="45.31676" lon="4.46688">
        <ele>1152</ele>
        <time>2018-08-21T14:13:35+02:00</time>
      </trkpt>
      <trkpt lat="45.31664" lon="4.46653">
        <ele>1149</ele>
        <time>2018-08-21T14:13:52+02:00</time>
      </trkpt>
      <trkpt lat="45.31651" lon="4.4662">
        <ele>1148</ele>
        <time>2018-08-21T14:14:10+02:00</time>
      </trkpt>
      <trkpt lat="45.31645" lon="4.46595">
        <ele>1148</ele>
        <time>2018-08-21T14:14:25+02:00</time>
      </trkpt>
      <trkpt lat="45.31637" lon="4.46571">
        <ele>1148</ele>
        <time>2018-08-21T14:14:41+02:00</time>
      </trkpt>
      <trkpt lat="45.31622" lon="4.46546">
        <ele>1150</ele>
        <time>2018-08-21T14:14:58+02:00</time>
      </trkpt>
      <trkpt lat="45.316" lon="4.46534">
        <ele>1151</ele>
        <time>2018-08-21T14:15:15+02:00</time>
      </trkpt>
      <trkpt lat="45.31586" lon="4.46528">
        <ele>1151</ele>
        <time>2018-08-21T14:15:30+02:00</time>
      </trkpt>
      <trkpt lat="45.31569" lon="4.4652">
        <ele>1151</ele>
        <time>2018-08-21T14:15:45+02:00</time>
      </trkpt>
      <trkpt lat="45.31555" lon="4.46509">
        <ele>1151</ele>
        <time>2018-08-21T14:16:01+02:00</time>
      </trkpt>
      <trkpt lat="45.31551" lon="4.46501">
        <ele>1151</ele>
        <time>2018-08-21T14:16:08+02:00</time>
      </trkpt>
      <trkpt lat="45.31543" lon="4.46479">
        <ele>1152</ele>
        <time>2018-08-21T14:16:23+02:00</time>
      </trkpt>
      <trkpt lat="45.31539" lon="4.46466">
        <ele>1152</ele>
        <time>2018-08-21T14:16:32+02:00</time>
      </trkpt>
      <trkpt lat="45.31525" lon="4.4645">
        <ele>1152</ele>
        <time>2018-08-21T14:16:48+02:00</time>
      </trkpt>
      <trkpt lat="45.31505" lon="4.46431">
        <ele>1151</ele>
        <time>2018-08-21T14:17:07+02:00</time>
      </trkpt>
      <trkpt lat="45.31485" lon="4.46414">
        <ele>1149</ele>
        <time>2018-08-21T14:17:23+02:00</time>
      </trkpt>
      <trkpt lat="45.31466" lon="4.46402">
        <ele>1148</ele>
        <time>2018-08-21T14:17:38+02:00</time>
      </trkpt>
      <trkpt lat="45.31455" lon="4.46378">
        <ele>1148</ele>
        <time>2018-08-21T14:17:55+02:00</time>
      </trkpt>
      <trkpt lat="45.31453" lon="4.46375">
        <ele>1148</ele>
        <time>2018-08-21T14:17:58+02:00</time>
      </trkpt>
      <trkpt lat="45.31446" lon="4.46347">
        <ele>1149</ele>
        <time>2018-08-21T14:18:14+02:00</time>
      </trkpt>
      <trkpt lat="45.31441" lon="4.46332">
        <ele>1149</ele>
        <time>2018-08-21T14:18:23+02:00</time>
      </trkpt>
      <trkpt lat="45.31431" lon="4.46309">
        <ele>1149</ele>
        <time>2018-08-21T14:18:37+02:00</time>
      </trkpt>
      <trkpt lat="45.31418" lon="4.46284">
        <ele>1150</ele>
        <time>2018-08-21T14:18:54+02:00</time>
      </trkpt>
      <trkpt lat="45.31415" lon="4.46266">
        <ele>1151</ele>
        <time>2018-08-21T14:19:06+02:00</time>
      </trkpt>
      <trkpt lat="45.31417" lon="4.46242">
        <ele>1152</ele>
        <time>2018-08-21T14:19:22+02:00</time>
      </trkpt>
      <trkpt lat="45.31418" lon="4.46217">
        <ele>1153</ele>
        <time>2018-08-21T14:19:38+02:00</time>
      </trkpt>
      <trkpt lat="45.31417" lon="4.46205">
        <ele>1154</ele>
        <time>2018-08-21T14:19:45+02:00</time>
      </trkpt>
      <trkpt lat="45.31417" lon="4.46183">
        <ele>1154</ele>
        <time>2018-08-21T14:19:58+02:00</time>
      </trkpt>
      <trkpt lat="45.31416" lon="4.46164">
        <ele>1155</ele>
        <time>2018-08-21T14:20:11+02:00</time>
      </trkpt>
      <trkpt lat="45.31413" lon="4.46134">
        <ele>1154</ele>
        <time>2018-08-21T14:20:27+02:00</time>
      </trkpt>
      <trkpt lat="45.31412" lon="4.46128">
        <ele>1154</ele>
        <time>2018-08-21T14:20:30+02:00</time>
      </trkpt>
      <trkpt lat="45.31408" lon="4.461">
        <ele>1153</ele>
        <time>2018-08-21T14:20:47+02:00</time>
      </trkpt>
      <trkpt lat="45.31406" lon="4.46073">
        <ele>1153</ele>
        <time>2018-08-21T14:21:02+02:00</time>
      </trkpt>
      <trkpt lat="45.31407" lon="4.46046">
        <ele>1152</ele>
        <time>2018-08-21T14:21:17+02:00</time>
      </trkpt>
      <trkpt lat="45.3141" lon="4.46026">
        <ele>1151</ele>
        <time>2018-08-21T14:21:29+02:00</time>
      </trkpt>
      <trkpt lat="45.31414" lon="4.46001">
        <ele>1151</ele>
        <time>2018-08-21T14:21:43+02:00</time>
      </trkpt>
      <trkpt lat="45.31419" lon="4.45974">
        <ele>1152</ele>
        <time>2018-08-21T14:21:59+02:00</time>
      </trkpt>
      <trkpt lat="45.31424" lon="4.45949">
        <ele>1152</ele>
        <time>2018-08-21T14:22:13+02:00</time>
      </trkpt>
      <trkpt lat="45.31428" lon="4.45926">
        <ele>1153</ele>
        <time>2018-08-21T14:22:28+02:00</time>
      </trkpt>
      <trkpt lat="45.31429" lon="4.45903">
        <ele>1152</ele>
        <time>2018-08-21T14:22:41+02:00</time>
      </trkpt>
      <trkpt lat="45.31428" lon="4.45873">
        <ele>1151</ele>
        <time>2018-08-21T14:22:58+02:00</time>
      </trkpt>
      <trkpt lat="45.31427" lon="4.45843">
        <ele>1150</ele>
        <time>2018-08-21T14:23:15+02:00</time>
      </trkpt>
      <trkpt lat="45.31426" lon="4.45815">
        <ele>1150</ele>
        <time>2018-08-21T14:23:31+02:00</time>
      </trkpt>
      <trkpt lat="45.31424" lon="4.45785">
        <ele>1150</ele>
        <time>2018-08-21T14:23:47+02:00</time>
      </trkpt>
      <trkpt lat="45.31423" lon="4.45756">
        <ele>1151</ele>
        <time>2018-08-21T14:24:04+02:00</time>
      </trkpt>
      <trkpt lat="45.31427" lon="4.45732">
        <ele>1152</ele>
        <time>2018-08-21T14:24:20+02:00</time>
      </trkpt>
      <trkpt lat="45.31428" lon="4.45718">
        <ele>1153</ele>
        <time>2018-08-21T14:24:29+02:00</time>
      </trkpt>
      <trkpt lat="45.3143" lon="4.45695">
        <ele>1154</ele>
        <time>2018-08-21T14:24:44+02:00</time>
      </trkpt>
      <trkpt lat="45.3143" lon="4.45673">
        <ele>1155</ele>
        <time>2018-08-21T14:24:58+02:00</time>
      </trkpt>
      <trkpt lat="45.3144" lon="4.45647">
        <ele>1156</ele>
        <time>2018-08-21T14:25:17+02:00</time>
      </trkpt>
      <trkpt lat="45.31446" lon="4.45628">
        <ele>1156</ele>
        <time>2018-08-21T14:25:33+02:00</time>
      </trkpt>
      <trkpt lat="45.31451" lon="4.45611">
        <ele>1157</ele>
        <time>2018-08-21T14:25:44+02:00</time>
      </trkpt>
      <trkpt lat="45.31454" lon="4.45581">
        <ele>1158</ele>
        <time>2018-08-21T14:26:05+02:00</time>
      </trkpt>
      <trkpt lat="45.3146" lon="4.45552">
        <ele>1160</ele>
        <time>2018-08-21T14:26:22+02:00</time>
      </trkpt>
      <trkpt lat="45.31463" lon="4.45538">
        <ele>1161</ele>
        <time>2018-08-21T14:26:29+02:00</time>
      </trkpt>
      <trkpt lat="45.31471" lon="4.45516">
        <ele>1161</ele>
        <time>2018-08-21T14:26:42+02:00</time>
      </trkpt>
      <trkpt lat="45.31484" lon="4.45493">
        <ele>1161</ele>
        <time>2018-08-21T14:26:57+02:00</time>
      </trkpt>
      <trkpt lat="45.31488" lon="4.4547">
        <ele>1161</ele>
        <time>2018-08-21T14:27:11+02:00</time>
      </trkpt>
      <trkpt lat="45.31486" lon="4.4546">
        <ele>1162</ele>
        <time>2018-08-21T14:27:18+02:00</time>
      </trkpt>
      <trkpt lat="45.31505" lon="4.4544">
        <ele>1160</ele>
        <time>2018-08-21T14:27:33+02:00</time>
      </trkpt>
      <trkpt lat="45.3152" lon="4.45421">
        <ele>1158</ele>
        <time>2018-08-21T14:28:10+02:00</time>
      </trkpt>
      <trkpt lat="45.31533" lon="4.45397">
        <ele>1157</ele>
        <time>2018-08-21T14:28:26+02:00</time>
      </trkpt>
      <trkpt lat="45.31535" lon="4.45381">
        <ele>1157</ele>
        <time>2018-08-21T14:28:37+02:00</time>
      </trkpt>
      <trkpt lat="45.31544" lon="4.45365">
        <ele>1157</ele>
        <time>2018-08-21T14:28:50+02:00</time>
      </trkpt>
      <trkpt lat="45.31558" lon="4.4535">
        <ele>1156</ele>
        <time>2018-08-21T14:29:05+02:00</time>
      </trkpt>
      <trkpt lat="45.31574" lon="4.45336">
        <ele>1155</ele>
        <time>2018-08-21T14:29:18+02:00</time>
      </trkpt>
      <trkpt lat="45.31592" lon="4.45321">
        <ele>1153</ele>
        <time>2018-08-21T14:29:31+02:00</time>
      </trkpt>
      <trkpt lat="45.31601" lon="4.45307">
        <ele>1153</ele>
        <time>2018-08-21T14:29:42+02:00</time>
      </trkpt>
      <trkpt lat="45.31613" lon="4.4529">
        <ele>1151</ele>
        <time>2018-08-21T14:29:55+02:00</time>
      </trkpt>
      <trkpt lat="45.31624" lon="4.45272">
        <ele>1151</ele>
        <time>2018-08-21T14:30:10+02:00</time>
      </trkpt>
      <trkpt lat="45.3163" lon="4.45257">
        <ele>1151</ele>
        <time>2018-08-21T14:30:21+02:00</time>
      </trkpt>
      <trkpt lat="45.31641" lon="4.45232">
        <ele>1151</ele>
        <time>2018-08-21T14:30:35+02:00</time>
      </trkpt>
      <trkpt lat="45.31651" lon="4.45213">
        <ele>1151</ele>
        <time>2018-08-21T14:30:48+02:00</time>
      </trkpt>
      <trkpt lat="45.31651" lon="4.45193">
        <ele>1153</ele>
        <time>2018-08-21T14:30:59+02:00</time>
      </trkpt>
      <trkpt lat="45.31646" lon="4.45171">
        <ele>1156</ele>
        <time>2018-08-21T14:31:11+02:00</time>
      </trkpt>
      <trkpt lat="45.3166" lon="4.45151">
        <ele>1155</ele>
        <time>2018-08-21T14:31:25+02:00</time>
      </trkpt>
      <trkpt lat="45.31671" lon="4.4514">
        <ele>1154</ele>
        <time>2018-08-21T14:31:35+02:00</time>
      </trkpt>
      <trkpt lat="45.3168" lon="4.45126">
        <ele>1154</ele>
        <time>2018-08-21T14:31:50+02:00</time>
      </trkpt>
      <trkpt lat="45.31694" lon="4.45111">
        <ele>1154</ele>
        <time>2018-08-21T14:32:06+02:00</time>
      </trkpt>
      <trkpt lat="45.31704" lon="4.45089">
        <ele>1154</ele>
        <time>2018-08-21T14:32:20+02:00</time>
      </trkpt>
      <trkpt lat="45.31716" lon="4.45063">
        <ele>1153</ele>
        <time>2018-08-21T14:32:46+02:00</time>
      </trkpt>
      <trkpt lat="45.3173" lon="4.4505">
        <ele>1152</ele>
        <time>2018-08-21T14:32:59+02:00</time>
      </trkpt>
      <trkpt lat="45.31735" lon="4.45039">
        <ele>1152</ele>
        <time>2018-08-21T14:33:04+02:00</time>
      </trkpt>
      <trkpt lat="45.31751" lon="4.45021">
        <ele>1150</ele>
        <time>2018-08-21T14:33:23+02:00</time>
      </trkpt>
      <trkpt lat="45.31766" lon="4.44998">
        <ele>1150</ele>
        <time>2018-08-21T14:33:42+02:00</time>
      </trkpt>
      <trkpt lat="45.31777" lon="4.44983">
        <ele>1150</ele>
        <time>2018-08-21T14:33:56+02:00</time>
      </trkpt>
      <trkpt lat="45.31786" lon="4.44969">
        <ele>1150</ele>
        <time>2018-08-21T14:34:12+02:00</time>
      </trkpt>
      <trkpt lat="45.318" lon="4.44955">
        <ele>1149</ele>
        <time>2018-08-21T14:34:28+02:00</time>
      </trkpt>
      <trkpt lat="45.31818" lon="4.44941">
        <ele>1148</ele>
        <time>2018-08-21T14:34:42+02:00</time>
      </trkpt>
      <trkpt lat="45.31831" lon="4.44927">
        <ele>1147</ele>
        <time>2018-08-21T14:34:56+02:00</time>
      </trkpt>
      <trkpt lat="45.31846" lon="4.44909">
        <ele>1145</ele>
        <time>2018-08-21T14:35:15+02:00</time>
      </trkpt>
      <trkpt lat="45.31849" lon="4.44904">
        <ele>1145</ele>
        <time>2018-08-21T14:35:22+02:00</time>
      </trkpt>
      <trkpt lat="45.31865" lon="4.44891">
        <ele>1142</ele>
        <time>2018-08-21T14:35:38+02:00</time>
      </trkpt>
      <trkpt lat="45.31879" lon="4.44877">
        <ele>1141</ele>
        <time>2018-08-21T14:36:04+02:00</time>
      </trkpt>
      <trkpt lat="45.31893" lon="4.44871">
        <ele>1139</ele>
        <time>2018-08-21T14:36:21+02:00</time>
      </trkpt>
      <trkpt lat="45.31904" lon="4.44857">
        <ele>1138</ele>
        <time>2018-08-21T14:36:34+02:00</time>
      </trkpt>
      <trkpt lat="45.31915" lon="4.44846">
        <ele>1137</ele>
        <time>2018-08-21T14:36:44+02:00</time>
      </trkpt>
      <trkpt lat="45.31917" lon="4.44819">
        <ele>1135</ele>
        <time>2018-08-21T14:37:00+02:00</time>
      </trkpt>
      <trkpt lat="45.31916" lon="4.44799">
        <ele>1133</ele>
        <time>2018-08-21T14:37:10+02:00</time>
      </trkpt>
      <trkpt lat="45.31915" lon="4.44787">
        <ele>1132</ele>
        <time>2018-08-21T14:37:21+02:00</time>
      </trkpt>
      <trkpt lat="45.31898" lon="4.44781">
        <ele>1133</ele>
        <time>2018-08-21T14:38:04+02:00</time>
      </trkpt>
      <trkpt lat="45.3188" lon="4.4477">
        <ele>1134</ele>
        <time>2018-08-21T14:38:30+02:00</time>
      </trkpt>
      <trkpt lat="45.31869" lon="4.44768">
        <ele>1135</ele>
        <time>2018-08-21T14:38:46+02:00</time>
      </trkpt>
      <trkpt lat="45.31853" lon="4.44767">
        <ele>1136</ele>
        <time>2018-08-21T14:39:04+02:00</time>
      </trkpt>
      <trkpt lat="45.31837" lon="4.44748">
        <ele>1137</ele>
        <time>2018-08-21T14:39:32+02:00</time>
      </trkpt>
      <trkpt lat="45.31823" lon="4.44735">
        <ele>1138</ele>
        <time>2018-08-21T14:39:58+02:00</time>
      </trkpt>
      <trkpt lat="45.318" lon="4.4473">
        <ele>1144</ele>
        <time>2018-08-21T14:40:14+02:00</time>
      </trkpt>
      <trkpt lat="45.31782" lon="4.44737">
        <ele>1148</ele>
        <time>2018-08-21T14:40:44+02:00</time>
      </trkpt>
      <trkpt lat="45.31769" lon="4.44734">
        <ele>1151</ele>
        <time>2018-08-21T14:41:00+02:00</time>
      </trkpt>
      <trkpt lat="45.31749" lon="4.44731">
        <ele>1156</ele>
        <time>2018-08-21T14:41:30+02:00</time>
      </trkpt>
      <trkpt lat="45.31728" lon="4.44724">
        <ele>1160</ele>
        <time>2018-08-21T14:41:59+02:00</time>
      </trkpt>
      <trkpt lat="45.31707" lon="4.44719">
        <ele>1164</ele>
        <time>2018-08-21T14:42:33+02:00</time>
      </trkpt>
      <trkpt lat="45.31696" lon="4.44709">
        <ele>1166</ele>
        <time>2018-08-21T14:42:49+02:00</time>
      </trkpt>
      <trkpt lat="45.3169" lon="4.44679">
        <ele>1167</ele>
        <time>2018-08-21T14:43:17+02:00</time>
      </trkpt>
      <trkpt lat="45.31684" lon="4.44654">
        <ele>1166</ele>
        <time>2018-08-21T14:47:53+02:00</time>
      </trkpt>
      <trkpt lat="45.31677" lon="4.44636">
        <ele>1166</ele>
        <time>2018-08-21T14:48:06+02:00</time>
      </trkpt>
      <trkpt lat="45.31664" lon="4.44615">
        <ele>1167</ele>
        <time>2018-08-21T14:49:41+02:00</time>
      </trkpt>
      <trkpt lat="45.31648" lon="4.44596">
        <ele>1168</ele>
        <time>2018-08-21T14:50:10+02:00</time>
      </trkpt>
      <trkpt lat="45.3164" lon="4.44573">
        <ele>1167</ele>
        <time>2018-08-21T14:50:31+02:00</time>
      </trkpt>
      <trkpt lat="45.31631" lon="4.44561">
        <ele>1167</ele>
        <time>2018-08-21T14:50:42+02:00</time>
      </trkpt>
      <trkpt lat="45.31618" lon="4.44547">
        <ele>1168</ele>
        <time>2018-08-21T14:50:58+02:00</time>
      </trkpt>
      <trkpt lat="45.31604" lon="4.4454">
        <ele>1170</ele>
        <time>2018-08-21T14:51:13+02:00</time>
      </trkpt>
      <trkpt lat="45.31585" lon="4.44531">
        <ele>1173</ele>
        <time>2018-08-21T14:51:44+02:00</time>
      </trkpt>
      <trkpt lat="45.31567" lon="4.44513">
        <ele>1174</ele>
        <time>2018-08-21T14:52:13+02:00</time>
      </trkpt>
      <trkpt lat="45.31553" lon="4.44495">
        <ele>1174</ele>
        <time>2018-08-21T14:53:53+02:00</time>
      </trkpt>
      <trkpt lat="45.31531" lon="4.44487">
        <ele>1176</ele>
        <time>2018-08-21T14:54:18+02:00</time>
      </trkpt>
      <trkpt lat="45.31513" lon="4.44488">
        <ele>1179</ele>
        <time>2018-08-21T14:54:40+02:00</time>
      </trkpt>
      <trkpt lat="45.31501" lon="4.44485">
        <ele>1180</ele>
        <time>2018-08-21T14:54:55+02:00</time>
      </trkpt>
      <trkpt lat="45.31484" lon="4.44484">
        <ele>1181</ele>
        <time>2018-08-21T14:55:11+02:00</time>
      </trkpt>
      <trkpt lat="45.31466" lon="4.44483">
        <ele>1182</ele>
        <time>2018-08-21T14:55:36+02:00</time>
      </trkpt>
      <trkpt lat="45.31447" lon="4.44484">
        <ele>1184</ele>
        <time>2018-08-21T14:55:56+02:00</time>
      </trkpt>
      <trkpt lat="45.31432" lon="4.44485">
        <ele>1185</ele>
        <time>2018-08-21T14:56:10+02:00</time>
      </trkpt>
      <trkpt lat="45.31412" lon="4.44486">
        <ele>1186</ele>
        <time>2018-08-21T14:56:27+02:00</time>
      </trkpt>
      <trkpt lat="45.31396" lon="4.44488">
        <ele>1187</ele>
        <time>2018-08-21T14:56:41+02:00</time>
      </trkpt>
      <trkpt lat="45.31381" lon="4.4449">
        <ele>1187</ele>
        <time>2018-08-21T14:56:56+02:00</time>
      </trkpt>
      <trkpt lat="45.31365" lon="4.44492">
        <ele>1188</ele>
        <time>2018-08-21T14:57:10+02:00</time>
      </trkpt>
      <trkpt lat="45.3135" lon="4.44497">
        <ele>1189</ele>
        <time>2018-08-21T14:57:26+02:00</time>
      </trkpt>
      <trkpt lat="45.31329" lon="4.44504">
        <ele>1191</ele>
        <time>2018-08-21T14:57:49+02:00</time>
      </trkpt>
      <trkpt lat="45.31312" lon="4.4451">
        <ele>1192</ele>
        <time>2018-08-21T14:58:06+02:00</time>
      </trkpt>
      <trkpt lat="45.31295" lon="4.44524">
        <ele>1194</ele>
        <time>2018-08-21T14:58:35+02:00</time>
      </trkpt>
      <trkpt lat="45.3128" lon="4.44512">
        <ele>1194</ele>
        <time>2018-08-21T14:59:00+02:00</time>
      </trkpt>
      <trkpt lat="45.31265" lon="4.44501">
        <ele>1194</ele>
        <time>2018-08-21T14:59:35+02:00</time>
      </trkpt>
      <trkpt lat="45.31257" lon="4.44495">
        <ele>1194</ele>
        <time>2018-08-21T14:59:48+02:00</time>
      </trkpt>
      <trkpt lat="45.31248" lon="4.4448">
        <ele>1195</ele>
        <time>2018-08-21T15:00:03+02:00</time>
      </trkpt>
      <trkpt lat="45.31236" lon="4.44477">
        <ele>1196</ele>
        <time>2018-08-21T15:00:19+02:00</time>
      </trkpt>
      <trkpt lat="45.31226" lon="4.44464">
        <ele>1197</ele>
        <time>2018-08-21T15:00:34+02:00</time>
      </trkpt>
      <trkpt lat="45.31216" lon="4.44451">
        <ele>1198</ele>
        <time>2018-08-21T15:00:48+02:00</time>
      </trkpt>
      <trkpt lat="45.31205" lon="4.44442">
        <ele>1200</ele>
        <time>2018-08-21T15:01:02+02:00</time>
      </trkpt>
      <trkpt lat="45.31196" lon="4.44428">
        <ele>1201</ele>
        <time>2018-08-21T15:01:17+02:00</time>
      </trkpt>
      <trkpt lat="45.31179" lon="4.44408">
        <ele>1203</ele>
        <time>2018-08-21T15:02:13+02:00</time>
      </trkpt>
      <trkpt lat="45.31174" lon="4.44398">
        <ele>1204</ele>
        <time>2018-08-21T15:02:28+02:00</time>
      </trkpt>
      <trkpt lat="45.31162" lon="4.44374">
        <ele>1206</ele>
        <time>2018-08-21T15:03:39+02:00</time>
      </trkpt>
      <trkpt lat="45.31155" lon="4.44347">
        <ele>1207</ele>
        <time>2018-08-21T15:04:09+02:00</time>
      </trkpt>
      <trkpt lat="45.31148" lon="4.44322">
        <ele>1207</ele>
        <time>2018-08-21T15:04:35+02:00</time>
      </trkpt>
      <trkpt lat="45.31142" lon="4.44304">
        <ele>1207</ele>
        <time>2018-08-21T15:04:49+02:00</time>
      </trkpt>
      <trkpt lat="45.3113" lon="4.44278">
        <ele>1206</ele>
        <time>2018-08-21T15:06:03+02:00</time>
      </trkpt>
      <trkpt lat="45.3112" lon="4.4426">
        <ele>1206</ele>
        <time>2018-08-21T15:06:18+02:00</time>
      </trkpt>
      <trkpt lat="45.31108" lon="4.44238">
        <ele>1206</ele>
        <time>2018-08-21T15:06:37+02:00</time>
      </trkpt>
      <trkpt lat="45.31094" lon="4.4423">
        <ele>1207</ele>
        <time>2018-08-21T15:07:10+02:00</time>
      </trkpt>
      <trkpt lat="45.31083" lon="4.44222">
        <ele>1207</ele>
        <time>2018-08-21T15:07:23+02:00</time>
      </trkpt>
      <trkpt lat="45.31073" lon="4.44213">
        <ele>1207</ele>
        <time>2018-08-21T15:07:35+02:00</time>
      </trkpt>
      <trkpt lat="45.31053" lon="4.44199">
        <ele>1207</ele>
        <time>2018-08-21T15:08:05+02:00</time>
      </trkpt>
      <trkpt lat="45.3104" lon="4.44187">
        <ele>1207</ele>
        <time>2018-08-21T15:08:30+02:00</time>
      </trkpt>
      <trkpt lat="45.31022" lon="4.44179">
        <ele>1208</ele>
        <time>2018-08-21T15:08:54+02:00</time>
      </trkpt>
      <trkpt lat="45.31008" lon="4.44165">
        <ele>1209</ele>
        <time>2018-08-21T15:09:20+02:00</time>
      </trkpt>
      <trkpt lat="45.30989" lon="4.4415">
        <ele>1209</ele>
        <time>2018-08-21T15:09:44+02:00</time>
      </trkpt>
      <trkpt lat="45.30975" lon="4.44143">
        <ele>1210</ele>
        <time>2018-08-21T15:10:01+02:00</time>
      </trkpt>
      <trkpt lat="45.30957" lon="4.44131">
        <ele>1211</ele>
        <time>2018-08-21T15:10:19+02:00</time>
      </trkpt>
      <trkpt lat="45.30942" lon="4.44121">
        <ele>1211</ele>
        <time>2018-08-21T15:10:34+02:00</time>
      </trkpt>
      <trkpt lat="45.30927" lon="4.4411">
        <ele>1212</ele>
        <time>2018-08-21T15:10:51+02:00</time>
      </trkpt>
      <trkpt lat="45.30911" lon="4.44097">
        <ele>1213</ele>
        <time>2018-08-21T15:11:08+02:00</time>
      </trkpt>
      <trkpt lat="45.30897" lon="4.44088">
        <ele>1213</ele>
        <time>2018-08-21T15:11:22+02:00</time>
      </trkpt>
      <trkpt lat="45.30884" lon="4.4408">
        <ele>1214</ele>
        <time>2018-08-21T15:11:36+02:00</time>
      </trkpt>
      <trkpt lat="45.3087" lon="4.44068">
        <ele>1215</ele>
        <time>2018-08-21T15:11:52+02:00</time>
      </trkpt>
      <trkpt lat="45.30856" lon="4.4405">
        <ele>1215</ele>
        <time>2018-08-21T15:12:17+02:00</time>
      </trkpt>
      <trkpt lat="45.30835" lon="4.44048">
        <ele>1218</ele>
        <time>2018-08-21T15:12:39+02:00</time>
      </trkpt>
      <trkpt lat="45.3082" lon="4.44044">
        <ele>1218</ele>
        <time>2018-08-21T15:12:53+02:00</time>
      </trkpt>
      <trkpt lat="45.30808" lon="4.44035">
        <ele>1217</ele>
        <time>2018-08-21T15:13:05+02:00</time>
      </trkpt>
      <trkpt lat="45.30801" lon="4.44015">
        <ele>1216</ele>
        <time>2018-08-21T15:13:21+02:00</time>
      </trkpt>
      <trkpt lat="45.30794" lon="4.43994">
        <ele>1215</ele>
        <time>2018-08-21T15:13:44+02:00</time>
      </trkpt>
      <trkpt lat="45.30791" lon="4.43984">
        <ele>1214</ele>
        <time>2018-08-21T15:13:57+02:00</time>
      </trkpt>
      <trkpt lat="45.30794" lon="4.44001">
        <ele>1216</ele>
        <time>2018-08-21T15:20:34+02:00</time>
      </trkpt>
      <trkpt lat="45.30798" lon="4.44015">
        <ele>1216</ele>
        <time>2018-08-21T15:20:44+02:00</time>
      </trkpt>
      <trkpt lat="45.30808" lon="4.44042">
        <ele>1218</ele>
        <time>2018-08-21T15:21:06+02:00</time>
      </trkpt>
      <trkpt lat="45.30807" lon="4.44047">
        <ele>1218</ele>
        <time>2018-08-21T15:21:10+02:00</time>
      </trkpt>
      <trkpt lat="45.30808" lon="4.44076">
        <ele>1220</ele>
        <time>2018-08-21T15:21:28+02:00</time>
      </trkpt>
      <trkpt lat="45.30809" lon="4.44099">
        <ele>1221</ele>
        <time>2018-08-21T15:21:42+02:00</time>
      </trkpt>
      <trkpt lat="45.3081" lon="4.44121">
        <ele>1221</ele>
        <time>2018-08-21T15:21:57+02:00</time>
      </trkpt>
      <trkpt lat="45.3081" lon="4.44142">
        <ele>1222</ele>
        <time>2018-08-21T15:22:11+02:00</time>
      </trkpt>
      <trkpt lat="45.30809" lon="4.44163">
        <ele>1223</ele>
        <time>2018-08-21T15:22:25+02:00</time>
      </trkpt>
      <trkpt lat="45.30809" lon="4.44189">
        <ele>1225</ele>
        <time>2018-08-21T15:22:44+02:00</time>
      </trkpt>
      <trkpt lat="45.30807" lon="4.44216">
        <ele>1227</ele>
        <time>2018-08-21T15:23:01+02:00</time>
      </trkpt>
      <trkpt lat="45.30806" lon="4.44226">
        <ele>1228</ele>
        <time>2018-08-21T15:23:09+02:00</time>
      </trkpt>
      <trkpt lat="45.308" lon="4.44249">
        <ele>1229</ele>
        <time>2018-08-21T15:23:26+02:00</time>
      </trkpt>
      <trkpt lat="45.30796" lon="4.44267">
        <ele>1230</ele>
        <time>2018-08-21T15:23:39+02:00</time>
      </trkpt>
      <trkpt lat="45.30793" lon="4.44291">
        <ele>1232</ele>
        <time>2018-08-21T15:23:58+02:00</time>
      </trkpt>
      <trkpt lat="45.30789" lon="4.44313">
        <ele>1233</ele>
        <time>2018-08-21T15:24:14+02:00</time>
      </trkpt>
      <trkpt lat="45.30784" lon="4.44335">
        <ele>1234</ele>
        <time>2018-08-21T15:24:30+02:00</time>
      </trkpt>
      <trkpt lat="45.30779" lon="4.44357">
        <ele>1235</ele>
        <time>2018-08-21T15:24:46+02:00</time>
      </trkpt>
      <trkpt lat="45.30773" lon="4.44376">
        <ele>1236</ele>
        <time>2018-08-21T15:25:01+02:00</time>
      </trkpt>
      <trkpt lat="45.30768" lon="4.44398">
        <ele>1237</ele>
        <time>2018-08-21T15:25:16+02:00</time>
      </trkpt>
      <trkpt lat="45.30765" lon="4.4442">
        <ele>1238</ele>
        <time>2018-08-21T15:25:43+02:00</time>
      </trkpt>
      <trkpt lat="45.30761" lon="4.44431">
        <ele>1238</ele>
        <time>2018-08-21T15:25:56+02:00</time>
      </trkpt>
      <trkpt lat="45.30746" lon="4.4445">
        <ele>1238</ele>
        <time>2018-08-21T15:26:14+02:00</time>
      </trkpt>
      <trkpt lat="45.30729" lon="4.44464">
        <ele>1238</ele>
        <time>2018-08-21T15:26:30+02:00</time>
      </trkpt>
      <trkpt lat="45.30713" lon="4.44477">
        <ele>1238</ele>
        <time>2018-08-21T15:26:45+02:00</time>
      </trkpt>
      <trkpt lat="45.30693" lon="4.4448">
        <ele>1237</ele>
        <time>2018-08-21T15:27:01+02:00</time>
      </trkpt>
      <trkpt lat="45.30674" lon="4.44479">
        <ele>1237</ele>
        <time>2018-08-21T15:27:16+02:00</time>
      </trkpt>
      <trkpt lat="45.30658" lon="4.44477">
        <ele>1237</ele>
        <time>2018-08-21T15:27:29+02:00</time>
      </trkpt>
      <trkpt lat="45.30639" lon="4.44474">
        <ele>1237</ele>
        <time>2018-08-21T15:27:45+02:00</time>
      </trkpt>
      <trkpt lat="45.30619" lon="4.44463">
        <ele>1237</ele>
        <time>2018-08-21T15:28:03+02:00</time>
      </trkpt>
      <trkpt lat="45.30605" lon="4.4445">
        <ele>1235</ele>
        <time>2018-08-21T15:28:18+02:00</time>
      </trkpt>
      <trkpt lat="45.30587" lon="4.44438">
        <ele>1234</ele>
        <time>2018-08-21T15:28:34+02:00</time>
      </trkpt>
      <trkpt lat="45.30575" lon="4.44428">
        <ele>1233</ele>
        <time>2018-08-21T15:28:47+02:00</time>
      </trkpt>
      <trkpt lat="45.3056" lon="4.44416">
        <ele>1231</ele>
        <time>2018-08-21T15:29:04+02:00</time>
      </trkpt>
      <trkpt lat="45.30542" lon="4.44411">
        <ele>1230</ele>
        <time>2018-08-21T15:29:20+02:00</time>
      </trkpt>
      <trkpt lat="45.30521" lon="4.44412">
        <ele>1229</ele>
        <time>2018-08-21T15:29:38+02:00</time>
      </trkpt>
      <trkpt lat="45.30504" lon="4.44415">
        <ele>1229</ele>
        <time>2018-08-21T15:29:52+02:00</time>
      </trkpt>
      <trkpt lat="45.30487" lon="4.44416">
        <ele>1228</ele>
        <time>2018-08-21T15:30:06+02:00</time>
      </trkpt>
      <trkpt lat="45.30471" lon="4.44417">
        <ele>1228</ele>
        <time>2018-08-21T15:30:20+02:00</time>
      </trkpt>
      <trkpt lat="45.30456" lon="4.44423">
        <ele>1227</ele>
        <time>2018-08-21T15:30:33+02:00</time>
      </trkpt>
      <trkpt lat="45.30364" lon="4.44366">
        <ele>1218</ele>
        <time>2022-01-02T14:05:57+01:00</time>
      </trkpt>
      <trkpt lat="45.30247" lon="4.44262">
        <ele>1210</ele>
        <time>2022-01-02T14:06:02+01:00</time>
      </trkpt>
      <trkpt lat="45.30219" lon="4.44195">
        <ele>1206</ele>
        <time>2022-01-02T14:06:07+01:00</time>
      </trkpt>
      <trkpt lat="45.30178" lon="4.44124">
        <ele>1201</ele>
        <time>2022-01-02T14:06:12+01:00</time>
      </trkpt>
      <trkpt lat="45.30124" lon="4.44071">
        <ele>1195</ele>
        <time>2022-01-02T14:06:17+01:00</time>
      </trkpt>
      <trkpt lat="45.30084" lon="4.44092">
        <ele>1195</ele>
        <time>2022-01-02T14:06:22+01:00</time>
      </trkpt>
      <trkpt lat="45.30032" lon="4.44147">
        <ele>1193</ele>
        <time>2022-01-02T14:06:27+01:00</time>
      </trkpt>
      <trkpt lat="45.2999" lon="4.44091">
        <ele>1181</ele>
        <time>2022-01-02T14:06:32+01:00</time>
      </trkpt>
      <trkpt lat="45.29952" lon="4.44108">
        <ele>1178</ele>
        <time>2018-08-21T15:47:41+02:00</time>
      </trkpt>
      <trkpt lat="45.29909" lon="4.44104">
        <ele>1173</ele>
        <time>2022-01-02T14:06:42+01:00</time>
      </trkpt>
      <trkpt lat="45.29891" lon="4.44136">
        <ele>1171</ele>
        <time>2022-01-02T14:06:47+01:00</time>
      </trkpt>
      <trkpt lat="45.29848" lon="4.44164">
        <ele>1163</ele>
        <time>2022-01-02T14:06:52+01:00</time>
      </trkpt>
      <trkpt lat="45.29836" lon="4.44192">
        <ele>1159</ele>
        <time>2022-01-02T14:06:57+01:00</time>
      </trkpt>
      <trkpt lat="45.29791" lon="4.44207">
        <ele>1150</ele>
        <time>2022-01-02T14:07:02+01:00</time>
      </trkpt>
      <trkpt lat="45.2975" lon="4.44274">
        <ele>1141</ele>
        <time>2022-01-02T14:07:07+01:00</time>
      </trkpt>
      <trkpt lat="45.2974" lon="4.44402">
        <ele>1140</ele>
        <time>2022-01-02T14:07:12+01:00</time>
      </trkpt>
      <trkpt lat="45.29679" lon="4.44507">
        <ele>1134</ele>
        <time>2022-01-02T14:07:17+01:00</time>
      </trkpt>
      <trkpt lat="45.29703" lon="4.44578">
        <ele>1132</ele>
        <time>2022-01-02T14:07:22+01:00</time>
      </trkpt>
      <trkpt lat="45.29661" lon="4.44668">
        <ele>1127</ele>
        <time>2018-08-21T15:47:52+02:00</time>
      </trkpt>
      <trkpt lat="45.29688" lon="4.44698">
        <ele>1124</ele>
        <time>2022-01-02T14:07:32+01:00</time>
      </trkpt>
      <trkpt lat="45.29752" lon="4.44707">
        <ele>1123</ele>
        <time>2022-01-02T14:07:37+01:00</time>
      </trkpt>
      <trkpt lat="45.29779" lon="4.44771">
        <ele>1120</ele>
        <time>2022-01-02T14:07:42+01:00</time>
      </trkpt>
      <trkpt lat="45.29782" lon="4.44898">
        <ele>1116</ele>
        <time>2018-08-21T15:54:08+02:00</time>
      </trkpt>
      <trkpt lat="45.29777" lon="4.44913">
        <ele>1116</ele>
        <time>2018-08-21T15:54:25+02:00</time>
      </trkpt>
      <trkpt lat="45.29766" lon="4.44937">
        <ele>1115</ele>
        <time>2018-08-21T15:54:42+02:00</time>
      </trkpt>
      <trkpt lat="45.29757" lon="4.44945">
        <ele>1114</ele>
        <time>2018-08-21T15:54:52+02:00</time>
      </trkpt>
      <trkpt lat="45.29736" lon="4.44961">
        <ele>1111</ele>
        <time>2018-08-21T15:55:11+02:00</time>
      </trkpt>
      <trkpt lat="45.29715" lon="4.44975">
        <ele>1108</ele>
        <time>2018-08-21T15:55:28+02:00</time>
      </trkpt>
      <trkpt lat="45.29698" lon="4.44989">
        <ele>1105</ele>
        <time>2018-08-21T15:55:45+02:00</time>
      </trkpt>
      <trkpt lat="45.29685" lon="4.45012">
        <ele>1103</ele>
        <time>2018-08-21T15:56:03+02:00</time>
      </trkpt>
      <trkpt lat="45.29682" lon="4.45031">
        <ele>1103</ele>
        <time>2018-08-21T15:56:14+02:00</time>
      </trkpt>
      <trkpt lat="45.29681" lon="4.4505">
        <ele>1103</ele>
        <time>2018-08-21T15:56:26+02:00</time>
      </trkpt>
      <trkpt lat="45.29681" lon="4.45073">
        <ele>1103</ele>
        <time>2018-08-21T15:56:40+02:00</time>
      </trkpt>
      <trkpt lat="45.29681" lon="4.45101">
        <ele>1102</ele>
        <time>2018-08-21T15:56:54+02:00</time>
      </trkpt>
      <trkpt lat="45.29686" lon="4.45122">
        <ele>1101</ele>
        <time>2018-08-21T15:57:08+02:00</time>
      </trkpt>
      <trkpt lat="45.29696" lon="4.45147">
        <ele>1101</ele>
        <time>2018-08-21T15:57:25+02:00</time>
      </trkpt>
      <trkpt lat="45.29709" lon="4.45176">
        <ele>1099</ele>
        <time>2018-08-21T15:57:43+02:00</time>
      </trkpt>
      <trkpt lat="45.29718" lon="4.45196">
        <ele>1098</ele>
        <time>2018-08-21T15:57:57+02:00</time>
      </trkpt>
      <trkpt lat="45.29735" lon="4.45215">
        <ele>1098</ele>
        <time>2018-08-21T15:58:13+02:00</time>
      </trkpt>
      <trkpt lat="45.29748" lon="4.45225">
        <ele>1099</ele>
        <time>2018-08-21T15:58:27+02:00</time>
      </trkpt>
      <trkpt lat="45.29767" lon="4.45237">
        <ele>1099</ele>
        <time>2018-08-21T15:58:43+02:00</time>
      </trkpt>
      <trkpt lat="45.2978" lon="4.4526">
        <ele>1098</ele>
        <time>2018-08-21T15:59:00+02:00</time>
      </trkpt>
      <trkpt lat="45.29792" lon="4.45283">
        <ele>1096</ele>
        <time>2018-08-21T15:59:17+02:00</time>
      </trkpt>
      <trkpt lat="45.29806" lon="4.45303">
        <ele>1096</ele>
        <time>2018-08-21T15:59:33+02:00</time>
      </trkpt>
      <trkpt lat="45.29817" lon="4.45324">
        <ele>1097</ele>
        <time>2018-08-21T15:59:49+02:00</time>
      </trkpt>
      <trkpt lat="45.29827" lon="4.45347">
        <ele>1095</ele>
        <time>2018-08-21T16:00:05+02:00</time>
      </trkpt>
      <trkpt lat="45.29837" lon="4.45369">
        <ele>1093</ele>
        <time>2018-08-21T16:00:21+02:00</time>
      </trkpt>
      <trkpt lat="45.29849" lon="4.45391">
        <ele>1091</ele>
        <time>2018-08-21T16:00:37+02:00</time>
      </trkpt>
      <trkpt lat="45.29866" lon="4.45411">
        <ele>1090</ele>
        <time>2018-08-21T16:00:53+02:00</time>
      </trkpt>
      <trkpt lat="45.29884" lon="4.45426">
        <ele>1090</ele>
        <time>2018-08-21T16:01:08+02:00</time>
      </trkpt>
      <trkpt lat="45.29896" lon="4.45437">
        <ele>1090</ele>
        <time>2018-08-21T16:01:20+02:00</time>
      </trkpt>
      <trkpt lat="45.29915" lon="4.45456">
        <ele>1089</ele>
        <time>2018-08-21T16:01:36+02:00</time>
      </trkpt>
      <trkpt lat="45.29923" lon="4.45469">
        <ele>1087</ele>
        <time>2018-08-21T16:01:46+02:00</time>
      </trkpt>
      <trkpt lat="45.29939" lon="4.45486">
        <ele>1084</ele>
        <time>2018-08-21T16:02:02+02:00</time>
      </trkpt>
      <trkpt lat="45.29951" lon="4.45508">
        <ele>1082</ele>
        <time>2018-08-21T16:02:18+02:00</time>
      </trkpt>
      <trkpt lat="45.29962" lon="4.4553">
        <ele>1081</ele>
        <time>2018-08-21T16:02:34+02:00</time>
      </trkpt>
      <trkpt lat="45.29965" lon="4.45557">
        <ele>1079</ele>
        <time>2018-08-21T16:02:49+02:00</time>
      </trkpt>
      <trkpt lat="45.29963" lon="4.45585">
        <ele>1077</ele>
        <time>2018-08-21T16:03:04+02:00</time>
      </trkpt>
      <trkpt lat="45.2996" lon="4.45612">
        <ele>1077</ele>
        <time>2018-08-21T16:03:20+02:00</time>
      </trkpt>
      <trkpt lat="45.29959" lon="4.45628">
        <ele>1078</ele>
        <time>2018-08-21T16:03:29+02:00</time>
      </trkpt>
      <trkpt lat="45.29958" lon="4.45654">
        <ele>1078</ele>
        <time>2018-08-21T16:03:45+02:00</time>
      </trkpt>
      <trkpt lat="45.29958" lon="4.45671">
        <ele>1078</ele>
        <time>2018-08-21T16:04:03+02:00</time>
      </trkpt>
      <trkpt lat="45.29963" lon="4.4569">
        <ele>1079</ele>
        <time>2018-08-21T16:04:19+02:00</time>
      </trkpt>
      <trkpt lat="45.29978" lon="4.45709">
        <ele>1081</ele>
        <time>2018-08-21T16:04:48+02:00</time>
      </trkpt>
      <trkpt lat="45.29969" lon="4.45721">
        <ele>1081</ele>
        <time>2018-08-21T16:06:48+02:00</time>
      </trkpt>
      <trkpt lat="45.29972" lon="4.4574">
        <ele>1082</ele>
        <time>2018-08-21T16:07:04+02:00</time>
      </trkpt>
      <trkpt lat="45.29982" lon="4.45755">
        <ele>1084</ele>
        <time>2018-08-21T16:07:26+02:00</time>
      </trkpt>
      <trkpt lat="45.29996" lon="4.45756">
        <ele>1085</ele>
        <time>2018-08-21T16:07:40+02:00</time>
      </trkpt>
      <trkpt lat="45.3001" lon="4.45762">
        <ele>1087</ele>
        <time>2018-08-21T16:07:56+02:00</time>
      </trkpt>
      <trkpt lat="45.30022" lon="4.4577">
        <ele>1088</ele>
        <time>2018-08-21T16:08:11+02:00</time>
      </trkpt>
      <trkpt lat="45.30034" lon="4.45776">
        <ele>1090</ele>
        <time>2018-08-21T16:08:27+02:00</time>
      </trkpt>
      <trkpt lat="45.30048" lon="4.45787">
        <ele>1093</ele>
        <time>2018-08-21T16:08:44+02:00</time>
      </trkpt>
      <trkpt lat="45.30063" lon="4.45797">
        <ele>1095</ele>
        <time>2018-08-21T16:09:00+02:00</time>
      </trkpt>
      <trkpt lat="45.30071" lon="4.45803">
        <ele>1097</ele>
        <time>2018-08-21T16:09:08+02:00</time>
      </trkpt>
      <trkpt lat="45.30087" lon="4.45817">
        <ele>1100</ele>
        <time>2018-08-21T16:09:26+02:00</time>
      </trkpt>
      <trkpt lat="45.30101" lon="4.45829">
        <ele>1102</ele>
        <time>2018-08-21T16:09:43+02:00</time>
      </trkpt>
      <trkpt lat="45.30114" lon="4.45842">
        <ele>1104</ele>
        <time>2018-08-21T16:09:59+02:00</time>
      </trkpt>
      <trkpt lat="45.30125" lon="4.45856">
        <ele>1106</ele>
        <time>2018-08-21T16:10:16+02:00</time>
      </trkpt>
      <trkpt lat="45.30133" lon="4.45873">
        <ele>1107</ele>
        <time>2018-08-21T16:10:32+02:00</time>
      </trkpt>
      <trkpt lat="45.30139" lon="4.45889">
        <ele>1109</ele>
        <time>2018-08-21T16:10:46+02:00</time>
      </trkpt>
      <trkpt lat="45.30151" lon="4.45906">
        <ele>1111</ele>
        <time>2018-08-21T16:11:02+02:00</time>
      </trkpt>
      <trkpt lat="45.30162" lon="4.45918">
        <ele>1113</ele>
        <time>2018-08-21T16:11:16+02:00</time>
      </trkpt>
      <trkpt lat="45.30173" lon="4.45935">
        <ele>1115</ele>
        <time>2018-08-21T16:11:31+02:00</time>
      </trkpt>
      <trkpt lat="45.30156" lon="4.45949">
        <ele>1113</ele>
        <time>2018-08-21T16:12:50+02:00</time>
      </trkpt>
      <trkpt lat="45.30141" lon="4.45957">
        <ele>1111</ele>
        <time>2018-08-21T16:13:16+02:00</time>
      </trkpt>
      <trkpt lat="45.30126" lon="4.45978">
        <ele>1109</ele>
        <time>2018-08-21T16:13:36+02:00</time>
      </trkpt>
      <trkpt lat="45.30115" lon="4.45997">
        <ele>1108</ele>
        <time>2018-08-21T16:13:57+02:00</time>
      </trkpt>
      <trkpt lat="45.30106" lon="4.46011">
        <ele>1108</ele>
        <time>2018-08-21T16:14:10+02:00</time>
      </trkpt>
      <trkpt lat="45.30096" lon="4.46028">
        <ele>1109</ele>
        <time>2018-08-21T16:14:24+02:00</time>
      </trkpt>
      <trkpt lat="45.30084" lon="4.46048">
        <ele>1109</ele>
        <time>2018-08-21T16:14:40+02:00</time>
      </trkpt>
      <trkpt lat="45.30071" lon="4.46071">
        <ele>1109</ele>
        <time>2018-08-21T16:14:57+02:00</time>
      </trkpt>
      <trkpt lat="45.30062" lon="4.46097">
        <ele>1109</ele>
        <time>2018-08-21T16:15:17+02:00</time>
      </trkpt>
      <trkpt lat="45.30057" lon="4.46113">
        <ele>1109</ele>
        <time>2018-08-21T16:15:28+02:00</time>
      </trkpt>
      <trkpt lat="45.30056" lon="4.46139">
        <ele>1111</ele>
        <time>2018-08-21T16:15:45+02:00</time>
      </trkpt>
      <trkpt lat="45.30057" lon="4.46151">
        <ele>1112</ele>
        <time>2018-08-21T16:15:53+02:00</time>
      </trkpt>
      <trkpt lat="45.30063" lon="4.4617">
        <ele>1115</ele>
        <time>2018-08-21T16:16:08+02:00</time>
      </trkpt>
      <trkpt lat="45.30066" lon="4.46192">
        <ele>1117</ele>
        <time>2018-08-21T16:16:22+02:00</time>
      </trkpt>
      <trkpt lat="45.30065" lon="4.46208">
        <ele>1118</ele>
        <time>2018-08-21T16:16:36+02:00</time>
      </trkpt>
      <trkpt lat="45.30068" lon="4.46226">
        <ele>1120</ele>
        <time>2018-08-21T16:16:54+02:00</time>
      </trkpt>
      <trkpt lat="45.30075" lon="4.46245">
        <ele>1123</ele>
        <time>2018-08-21T16:17:09+02:00</time>
      </trkpt>
      <trkpt lat="45.3008" lon="4.46277">
        <ele>1123</ele>
        <time>2018-08-21T16:17:29+02:00</time>
      </trkpt>
      <trkpt lat="45.30085" lon="4.46294">
        <ele>1123</ele>
        <time>2018-08-21T16:17:43+02:00</time>
      </trkpt>
      <trkpt lat="45.30093" lon="4.46314">
        <ele>1123</ele>
        <time>2018-08-21T16:17:58+02:00</time>
      </trkpt>
      <trkpt lat="45.30102" lon="4.4633">
        <ele>1123</ele>
        <time>2018-08-21T16:18:11+02:00</time>
      </trkpt>
      <trkpt lat="45.30116" lon="4.46348">
        <ele>1123</ele>
        <time>2018-08-21T16:18:27+02:00</time>
      </trkpt>
      <trkpt lat="45.30129" lon="4.46365">
        <ele>1123</ele>
        <time>2018-08-21T16:18:43+02:00</time>
      </trkpt>
      <trkpt lat="45.30139" lon="4.46378">
        <ele>1123</ele>
        <time>2018-08-21T16:18:56+02:00</time>
      </trkpt>
      <trkpt lat="45.30151" lon="4.46396">
        <ele>1123</ele>
        <time>2018-08-21T16:19:10+02:00</time>
      </trkpt>
      <trkpt lat="45.30161" lon="4.46414">
        <ele>1123</ele>
        <time>2018-08-21T16:19:25+02:00</time>
      </trkpt>
      <trkpt lat="45.3017" lon="4.46428">
        <ele>1124</ele>
        <time>2018-08-21T16:19:37+02:00</time>
      </trkpt>
      <trkpt lat="45.30181" lon="4.46452">
        <ele>1125</ele>
        <time>2018-08-21T16:19:54+02:00</time>
      </trkpt>
      <trkpt lat="45.3019" lon="4.46468">
        <ele>1127</ele>
        <time>2018-08-21T16:20:08+02:00</time>
      </trkpt>
      <trkpt lat="45.30197" lon="4.46482">
        <ele>1128</ele>
        <time>2018-08-21T16:20:19+02:00</time>
      </trkpt>
      <trkpt lat="45.30206" lon="4.46503">
        <ele>1130</ele>
        <time>2018-08-21T16:20:34+02:00</time>
      </trkpt>
      <trkpt lat="45.30215" lon="4.46528">
        <ele>1132</ele>
        <time>2018-08-21T16:20:52+02:00</time>
      </trkpt>
      <trkpt lat="45.30223" lon="4.46548">
        <ele>1135</ele>
        <time>2018-08-21T16:21:07+02:00</time>
      </trkpt>
      <trkpt lat="45.30227" lon="4.46572">
        <ele>1136</ele>
        <time>2018-08-21T16:21:23+02:00</time>
      </trkpt>
      <trkpt lat="45.30232" lon="4.46589">
        <ele>1138</ele>
        <time>2018-08-21T16:21:38+02:00</time>
      </trkpt>
      <trkpt lat="45.30237" lon="4.46615">
        <ele>1139</ele>
        <time>2018-08-21T16:21:51+02:00</time>
      </trkpt>
      <trkpt lat="45.30241" lon="4.46639">
        <ele>1140</ele>
        <time>2018-08-21T16:22:06+02:00</time>
      </trkpt>
      <trkpt lat="45.30248" lon="4.46655">
        <ele>1143</ele>
        <time>2018-08-21T16:22:19+02:00</time>
      </trkpt>
      <trkpt lat="45.30256" lon="4.46672">
        <ele>1144</ele>
        <time>2018-08-21T16:22:33+02:00</time>
      </trkpt>
      <trkpt lat="45.30259" lon="4.46693">
        <ele>1143</ele>
        <time>2018-08-21T16:22:47+02:00</time>
      </trkpt>
      <trkpt lat="45.30263" lon="4.46718">
        <ele>1142</ele>
        <time>2018-08-21T16:23:01+02:00</time>
      </trkpt>
      <trkpt lat="45.30269" lon="4.46732">
        <ele>1142</ele>
        <time>2018-08-21T16:23:15+02:00</time>
      </trkpt>
      <trkpt lat="45.30279" lon="4.46761">
        <ele>1143</ele>
        <time>2018-08-21T16:23:33+02:00</time>
      </trkpt>
      <trkpt lat="45.30287" lon="4.46777">
        <ele>1143</ele>
        <time>2018-08-21T16:23:47+02:00</time>
      </trkpt>
      <trkpt lat="45.30296" lon="4.46801">
        <ele>1144</ele>
        <time>2018-08-21T16:24:09+02:00</time>
      </trkpt>
      <trkpt lat="45.30303" lon="4.46824">
        <ele>1144</ele>
        <time>2018-08-21T16:24:24+02:00</time>
      </trkpt>
      <trkpt lat="45.3031" lon="4.46842">
        <ele>1144</ele>
        <time>2018-08-21T16:24:36+02:00</time>
      </trkpt>
      <trkpt lat="45.30317" lon="4.46869">
        <ele>1144</ele>
        <time>2018-08-21T16:24:51+02:00</time>
      </trkpt>
      <trkpt lat="45.30328" lon="4.46894">
        <ele>1144</ele>
        <time>2018-08-21T16:25:07+02:00</time>
      </trkpt>
      <trkpt lat="45.30337" lon="4.46918">
        <ele>1143</ele>
        <time>2018-08-21T16:25:24+02:00</time>
      </trkpt>
      <trkpt lat="45.3034" lon="4.46947">
        <ele>1142</ele>
        <time>2018-08-21T16:25:42+02:00</time>
      </trkpt>
      <trkpt lat="45.30341" lon="4.4697">
        <ele>1141</ele>
        <time>2018-08-21T16:25:57+02:00</time>
      </trkpt>
      <trkpt lat="45.30346" lon="4.46991">
        <ele>1140</ele>
        <time>2018-08-21T16:26:11+02:00</time>
      </trkpt>
      <trkpt lat="45.3035" lon="4.47011">
        <ele>1140</ele>
        <time>2018-08-21T16:26:25+02:00</time>
      </trkpt>
      <trkpt lat="45.30359" lon="4.47031">
        <ele>1142</ele>
        <time>2018-08-21T16:26:50+02:00</time>
      </trkpt>
      <trkpt lat="45.30367" lon="4.4705">
        <ele>1143</ele>
        <time>2018-08-21T16:27:06+02:00</time>
      </trkpt>
      <trkpt lat="45.30373" lon="4.47066">
        <ele>1145</ele>
        <time>2018-08-21T16:27:19+02:00</time>
      </trkpt>
      <trkpt lat="45.30381" lon="4.47094">
        <ele>1146</ele>
        <time>2018-08-21T16:27:43+02:00</time>
      </trkpt>
      <trkpt lat="45.30387" lon="4.47112">
        <ele>1147</ele>
        <time>2018-08-21T16:27:56+02:00</time>
      </trkpt>
      <trkpt lat="45.30392" lon="4.47131">
        <ele>1147</ele>
        <time>2018-08-21T16:28:11+02:00</time>
      </trkpt>
      <trkpt lat="45.30397" lon="4.47147">
        <ele>1147</ele>
        <time>2018-08-21T16:28:25+02:00</time>
      </trkpt>
      <trkpt lat="45.30404" lon="4.47165">
        <ele>1148</ele>
        <time>2018-08-21T16:28:40+02:00</time>
      </trkpt>
      <trkpt lat="45.30407" lon="4.47182">
        <ele>1148</ele>
        <time>2018-08-21T16:28:55+02:00</time>
      </trkpt>
      <trkpt lat="45.30408" lon="4.47197">
        <ele>1148</ele>
        <time>2018-08-21T16:29:09+02:00</time>
      </trkpt>
      <trkpt lat="45.30411" lon="4.47218">
        <ele>1147</ele>
        <time>2018-08-21T16:29:25+02:00</time>
      </trkpt>
      <trkpt lat="45.30422" lon="4.47236">
        <ele>1148</ele>
        <time>2018-08-21T16:29:41+02:00</time>
      </trkpt>
      <trkpt lat="45.30437" lon="4.47251">
        <ele>1148</ele>
        <time>2018-08-21T16:29:59+02:00</time>
      </trkpt>
      <trkpt lat="45.30447" lon="4.47265">
        <ele>1150</ele>
        <time>2018-08-21T16:30:14+02:00</time>
      </trkpt>
      <trkpt lat="45.30459" lon="4.47278">
        <ele>1151</ele>
        <time>2018-08-21T16:30:28+02:00</time>
      </trkpt>
      <trkpt lat="45.30469" lon="4.47296">
        <ele>1151</ele>
        <time>2018-08-21T16:30:43+02:00</time>
      </trkpt>
      <trkpt lat="45.30474" lon="4.47307">
        <ele>1152</ele>
        <time>2018-08-21T16:30:54+02:00</time>
      </trkpt>
      <trkpt lat="45.30485" lon="4.47333">
        <ele>1153</ele>
        <time>2018-08-21T16:31:31+02:00</time>
      </trkpt>
      <trkpt lat="45.30491" lon="4.47361">
        <ele>1155</ele>
        <time>2018-08-21T16:31:59+02:00</time>
      </trkpt>
      <trkpt lat="45.30495" lon="4.47382">
        <ele>1156</ele>
        <time>2018-08-21T16:32:19+02:00</time>
      </trkpt>
      <trkpt lat="45.30504" lon="4.47391">
        <ele>1157</ele>
        <time>2018-08-21T16:32:35+02:00</time>
      </trkpt>
      <trkpt lat="45.30513" lon="4.47413">
        <ele>1159</ele>
        <time>2018-08-21T16:33:02+02:00</time>
      </trkpt>
      <trkpt lat="45.30509" lon="4.47424">
        <ele>1159</ele>
        <time>2018-08-21T16:33:10+02:00</time>
      </trkpt>
      <trkpt lat="45.30502" lon="4.47453">
        <ele>1160</ele>
        <time>2018-08-21T16:33:29+02:00</time>
      </trkpt>
      <trkpt lat="45.30499" lon="4.47467">
        <ele>1161</ele>
        <time>2018-08-21T16:33:39+02:00</time>
      </trkpt>
      <trkpt lat="45.30493" lon="4.47493">
        <ele>1162</ele>
        <time>2018-08-21T16:33:56+02:00</time>
      </trkpt>
      <trkpt lat="45.3049" lon="4.47517">
        <ele>1163</ele>
        <time>2018-08-21T16:34:12+02:00</time>
      </trkpt>
      <trkpt lat="45.30493" lon="4.47538">
        <ele>1164</ele>
        <time>2018-08-21T16:34:27+02:00</time>
      </trkpt>
      <trkpt lat="45.30503" lon="4.47555">
        <ele>1166</ele>
        <time>2018-08-21T16:34:43+02:00</time>
      </trkpt>
      <trkpt lat="45.30513" lon="4.47569">
        <ele>1167</ele>
        <time>2018-08-21T16:34:57+02:00</time>
      </trkpt>
      <trkpt lat="45.30521" lon="4.47587">
        <ele>1168</ele>
        <time>2018-08-21T16:35:12+02:00</time>
      </trkpt>
      <trkpt lat="45.30526" lon="4.47605">
        <ele>1169</ele>
        <time>2018-08-21T16:35:25+02:00</time>
      </trkpt>
      <trkpt lat="45.30526" lon="4.47631">
        <ele>1170</ele>
        <time>2018-08-21T16:35:44+02:00</time>
      </trkpt>
      <trkpt lat="45.30526" lon="4.47661">
        <ele>1171</ele>
        <time>2018-08-21T16:36:09+02:00</time>
      </trkpt>
      <trkpt lat="45.30533" lon="4.47685">
        <ele>1171</ele>
        <time>2018-08-21T16:36:29+02:00</time>
      </trkpt>
      <trkpt lat="45.30543" lon="4.47703">
        <ele>1172</ele>
        <time>2018-08-21T16:36:44+02:00</time>
      </trkpt>
      <trkpt lat="45.30552" lon="4.47719">
        <ele>1172</ele>
        <time>2018-08-21T16:36:59+02:00</time>
      </trkpt>
      <trkpt lat="45.30564" lon="4.47742">
        <ele>1171</ele>
        <time>2018-08-21T16:37:28+02:00</time>
      </trkpt>
      <trkpt lat="45.30568" lon="4.47748">
        <ele>1171</ele>
        <time>2018-08-21T16:38:14+02:00</time>
      </trkpt>
      <trkpt lat="45.3049" lon="4.47809">
        <ele>1169</ele>
        <time>2022-01-02T14:20:37+01:00</time>
      </trkpt>
      <trkpt lat="45.30447" lon="4.4786">
        <ele>1169</ele>
        <time>2022-01-02T14:20:42+01:00</time>
      </trkpt>
      <trkpt lat="45.30545" lon="4.47882">
        <ele>1168</ele>
        <time>2022-01-02T14:20:47+01:00</time>
      </trkpt>
      <trkpt lat="45.30674" lon="4.47961">
        <ele>1166</ele>
        <time>2022-01-02T14:20:52+01:00</time>
      </trkpt>
      <trkpt lat="45.30739" lon="4.47974">
        <ele>1166</ele>
        <time>2022-01-02T14:20:57+01:00</time>
      </trkpt>
      <trkpt lat="45.30788" lon="4.48002">
        <ele>1167</ele>
        <time>2022-01-02T14:21:02+01:00</time>
      </trkpt>
      <trkpt lat="45.30908" lon="4.48023">
        <ele>1177</ele>
        <time>2022-01-02T14:21:07+01:00</time>
      </trkpt>
      <trkpt lat="45.31006" lon="4.48084">
        <ele>1182</ele>
        <time>2022-01-02T14:21:12+01:00</time>
      </trkpt>
      <trkpt lat="45.31105" lon="4.48111">
        <ele>1186</ele>
        <time>2022-01-02T14:21:17+01:00</time>
      </trkpt>
      <trkpt lat="45.3118" lon="4.48107">
        <ele>1191</ele>
        <time>2022-01-02T14:21:22+01:00</time>
      </trkpt>
      <trkpt lat="45.31249" lon="4.48131">
        <ele>1197</ele>
        <time>2022-01-02T14:21:27+01:00</time>
      </trkpt>
      <trkpt lat="45.31441" lon="4.48146">
        <ele>1205</ele>
        <time>2022-01-02T14:21:32+01:00</time>
      </trkpt>
      <trkpt lat="45.31471" lon="4.48103">
        <ele>1205</ele>
        <time>2022-01-02T14:21:37+01:00</time>
      </trkpt>
      <trkpt lat="45.315" lon="4.48021">
        <ele>1203</ele>
        <time>2022-01-02T14:21:42+01:00</time>
      </trkpt>
      <trkpt lat="45.31557" lon="4.47955">
        <ele>1203</ele>
        <time>2022-01-02T14:21:47+01:00</time>
      </trkpt>
      <trkpt lat="45.31612" lon="4.47948">
        <ele>1206</ele>
        <time>2022-01-02T14:21:52+01:00</time>
      </trkpt>
      <trkpt lat="45.31663" lon="4.47901">
        <ele>1207</ele>
        <time>2022-01-02T14:21:57+01:00</time>
      </trkpt>
      <trkpt lat="45.31716" lon="4.47837">
        <ele>1209</ele>
        <time>2022-01-02T14:22:02+01:00</time>
      </trkpt>
      <trkpt lat="45.3183" lon="4.47717">
        <ele>1206</ele>
        <time>2022-01-02T14:22:07+01:00</time>
      </trkpt>
      <trkpt lat="45.31983" lon="4.47687">
        <ele>1197</ele>
        <time>2022-01-02T14:22:12+01:00</time>
      </trkpt>
      <trkpt lat="45.3204" lon="4.47661">
        <ele>1193</ele>
        <time>2022-01-02T14:22:17+01:00</time>
      </trkpt>
      <trkpt lat="45.32081" lon="4.47627">
        <ele>1191</ele>
        <time>2022-01-02T14:22:22+01:00</time>
      </trkpt>
      <trkpt lat="45.32111" lon="4.47678">
        <ele>1193</ele>
        <time>2022-01-02T14:22:27+01:00</time>
      </trkpt>
      <trkpt lat="45.32301" lon="4.47815">
        <ele>1182</ele>
        <time>2022-01-02T14:22:32+01:00</time>
      </trkpt>
      <trkpt lat="45.32381" lon="4.47901">
        <ele>1174</ele>
        <time>2022-01-02T14:22:37+01:00</time>
      </trkpt>
      <trkpt lat="45.32407" lon="4.47942">
        <ele>1172</ele>
        <time>2022-01-02T14:22:42+01:00</time>
      </trkpt>
      <trkpt lat="45.32475" lon="4.48142">
        <ele>1153</ele>
        <time>2022-01-02T14:22:47+01:00</time>
      </trkpt>
      <trkpt lat="45.32546" lon="4.48162">
        <ele>1143</ele>
        <time>2018-08-21T17:24:22+02:00</time>
      </trkpt>
      <trkpt lat="45.32561" lon="4.48155">
        <ele>1142</ele>
        <time>2018-08-21T17:24:35+02:00</time>
      </trkpt>
      <trkpt lat="45.32575" lon="4.48145">
        <ele>1141</ele>
        <time>2018-08-21T17:24:48+02:00</time>
      </trkpt>
      <trkpt lat="45.32586" lon="4.48133">
        <ele>1142</ele>
        <time>2018-08-21T17:25:00+02:00</time>
      </trkpt>
      <trkpt lat="45.32601" lon="4.48116">
        <ele>1143</ele>
        <time>2018-08-21T17:25:15+02:00</time>
      </trkpt>
      <trkpt lat="45.32609" lon="4.48107">
        <ele>1143</ele>
        <time>2018-08-21T17:25:24+02:00</time>
      </trkpt>
      <trkpt lat="45.32624" lon="4.48099">
        <ele>1143</ele>
        <time>2018-08-21T17:25:39+02:00</time>
      </trkpt>
      <trkpt lat="45.32641" lon="4.48084">
        <ele>1143</ele>
        <time>2018-08-21T18:24:34+02:00</time>
      </trkpt>
    </trkseg>
  </trk>
</gpx>